createdAt,value
2023-07-02T00:00:09.913Z,100472.28
2023-07-02T00:02:38.050Z,100468.25
2023-07-02T00:05:06.463Z,100459.25
2023-07-02T00:07:35.847Z,100461.41
2023-07-02T00:10:03.569Z,100467.09
2023-07-02T00:12:30.759Z,100466.78
2023-07-02T00:14:58.042Z,100461.94
2023-07-02T00:17:25.312Z,100464.44
2023-07-02T00:19:53.410Z,100464.09
2023-07-02T00:22:21.984Z,100463.91
2023-07-02T00:24:51.692Z,100468.78
2023-07-02T00:27:19.251Z,100466.09
2023-07-02T00:29:46.411Z,100465.28
2023-07-02T00:32:13.614Z,100465.59
2023-07-02T00:34:40.814Z,100459.28
2023-07-02T00:37:08.029Z,100463.63
2023-07-02T00:39:35.393Z,100455.59
2023-07-02T00:42:04.220Z,100460.78
2023-07-02T00:44:31.956Z,100463.44
2023-07-02T00:46:59.216Z,100459.28
2023-07-02T00:49:26.792Z,100456.09
2023-07-02T00:51:54.008Z,100456.09
2023-07-02T00:54:21.230Z,100452.72
2023-07-02T00:56:48.543Z,100458.44
2023-07-02T00:59:15.901Z,100452.06
2023-07-02T01:01:43.320Z,100452.06
2023-07-02T01:04:10.844Z,100448.06
2023-07-02T01:06:42.869Z,100453.22
2023-07-02T01:09:11.088Z,100455.41
2023-07-02T01:11:39.773Z,100459.09
2023-07-02T01:14:14.026Z,100452.59
2023-07-02T01:16:44.895Z,100452.06
2023-07-02T01:19:20.082Z,100448.72
2023-07-02T01:21:50.996Z,100451.38
2023-07-02T01:24:19.008Z,100457.09
2023-07-02T01:26:46.896Z,100445.19
2023-07-02T01:29:22.304Z,100458.59
2023-07-02T01:31:49.581Z,100448.19
2023-07-02T01:34:16.982Z,100453.03
2023-07-02T01:36:44.169Z,100452.38
2023-07-02T01:39:11.466Z,100459.56
2023-07-02T01:41:56.034Z,100460.94
2023-07-02T01:44:23.800Z,100452.88
2023-07-02T01:46:51.015Z,100459.72
2023-07-02T01:49:19.329Z,100457.03
2023-07-02T01:51:50.334Z,100461.06
2023-07-02T01:54:17.798Z,100466.09
2023-07-02T01:56:45.022Z,100466.91
2023-07-02T01:59:12.676Z,100470.28
2023-07-02T02:01:42.684Z,100472.28
2023-07-02T02:04:10.936Z,100469.09
2023-07-02T02:06:39.426Z,100475.47
2023-07-02T02:09:07.438Z,100468.06
2023-07-02T02:11:36.089Z,100471.09
2023-07-02T02:14:03.345Z,100473.44
2023-07-02T02:16:30.864Z,100480.78
2023-07-02T02:18:58.083Z,100482.13
2023-07-02T02:21:25.282Z,100481.13
2023-07-02T02:23:52.464Z,100472.09
2023-07-02T02:26:19.659Z,100470.09
2023-07-02T02:28:46.864Z,100472.59
2023-07-02T02:31:14.166Z,100484.63
2023-07-02T02:33:41.418Z,100486.47
2023-07-02T02:36:08.721Z,100493.16
2023-07-02T02:38:36.051Z,100487.94
2023-07-02T02:41:03.543Z,100492.31
2023-07-02T02:43:30.785Z,100486.78
2023-07-02T02:45:57.992Z,100482.59
2023-07-02T02:48:25.188Z,100479.44
2023-07-02T02:50:52.402Z,100476.78
2023-07-02T02:53:19.592Z,100473.06
2023-07-02T02:55:46.757Z,100472.06
2023-07-02T02:58:13.929Z,100473.06
2023-07-02T03:00:43.865Z,100476.25
2023-07-02T03:03:11.220Z,100474.41
2023-07-02T03:05:38.440Z,100475.38
2023-07-02T03:08:06.836Z,100486.44
2023-07-02T03:10:34.043Z,100477.88
2023-07-02T03:13:01.512Z,100477.69
2023-07-02T03:15:28.730Z,100484.06
2023-07-02T03:17:55.954Z,100487.72
2023-07-02T03:20:23.378Z,100480.69
2023-07-02T03:22:50.569Z,100484.06
2023-07-02T03:25:18.546Z,100498.47
2023-07-02T03:27:45.808Z,100495.28
2023-07-02T03:30:13.161Z,100495.06
2023-07-02T03:32:40.409Z,100491.41
2023-07-02T03:35:07.937Z,100491.56
2023-07-02T03:37:35.095Z,100497.25
2023-07-02T03:40:02.300Z,100497.25
2023-07-02T03:42:30.003Z,100496.53
2023-07-02T03:44:57.201Z,100501.03
2023-07-02T03:47:24.391Z,100496.03
2023-07-02T03:49:51.946Z,100497.56
2023-07-02T03:52:19.205Z,100496.72
2023-07-02T03:54:46.446Z,100493.72
2023-07-02T03:57:13.648Z,100491.53
2023-07-02T03:59:40.829Z,100494.22
2023-07-02T04:02:08.048Z,100499.56
2023-07-02T04:04:35.382Z,100498.03
2023-07-02T04:07:02.661Z,100497.22
2023-07-02T04:09:30.141Z,100503.56
2023-07-02T04:11:57.360Z,100497.22
2023-07-02T04:14:24.507Z,100507.59
2023-07-02T04:16:51.693Z,100506.28
2023-07-02T04:19:18.927Z,100507.09
2023-07-02T04:21:46.072Z,100507.72
2023-07-02T04:24:13.213Z,100513.25
2023-07-02T04:26:58.802Z,100508.75
2023-07-02T04:29:31.235Z,100513.88
2023-07-02T04:31:58.407Z,100509.41
2023-07-02T04:34:25.674Z,100513.28
2023-07-02T04:36:54.070Z,100516.97
2023-07-02T04:39:21.411Z,100518.59
2023-07-02T04:41:50.296Z,100515.13
2023-07-02T04:44:17.445Z,100511.63
2023-07-02T04:46:44.594Z,100519.13
2023-07-02T04:49:11.832Z,100518.13
2023-07-02T04:51:39.110Z,100515.28
2023-07-02T04:54:06.258Z,100510.44
2023-07-02T04:56:33.448Z,100521.97
2023-07-02T04:59:00.596Z,100525.31
2023-07-02T05:01:29.492Z,100526.84
2023-07-02T05:03:56.876Z,100532.84
2023-07-02T05:06:24.120Z,100536.38
2023-07-02T05:08:51.323Z,100530.91
2023-07-02T05:11:18.446Z,100533.78
2023-07-02T05:13:45.632Z,100527.72
2023-07-02T05:16:12.894Z,100534.56
2023-07-02T05:18:40.198Z,100534.41
2023-07-02T05:21:07.367Z,100530.91
2023-07-02T05:23:34.570Z,100537.59
2023-07-02T05:26:02.827Z,100537.22
2023-07-02T05:28:30.198Z,100539.28
2023-07-02T05:30:57.452Z,100539.28
2023-07-02T05:33:24.681Z,100545.31
2023-07-02T05:35:52.230Z,100533.91
2023-07-02T05:38:20.505Z,100537.47
2023-07-02T05:40:48.062Z,100542.16
2023-07-02T05:43:15.582Z,100545.66
2023-07-02T05:45:42.886Z,100539.63
2023-07-02T05:48:10.156Z,100549.16
2023-07-02T05:50:37.436Z,100537.00
2023-07-02T05:53:04.648Z,100548.69
2023-07-02T05:55:31.816Z,100549.50
2023-07-02T05:58:02.860Z,100550.91
2023-07-02T06:00:30.744Z,100548.69
2023-07-02T06:02:58.030Z,100552.56
2023-07-02T06:05:25.354Z,100549.72
2023-07-02T06:07:52.931Z,100549.06
2023-07-02T06:10:20.135Z,100551.72
2023-07-02T06:12:47.365Z,100545.03
2023-07-02T06:15:14.543Z,100547.72
2023-07-02T06:17:41.737Z,100548.56
2023-07-02T06:20:09.480Z,100556.44
2023-07-02T06:22:36.658Z,100551.78
2023-07-02T06:25:05.732Z,100557.94
2023-07-02T06:27:33.494Z,100557.13
2023-07-02T06:30:00.665Z,100568.34
2023-07-02T06:32:28.545Z,100569.88
2023-07-02T06:34:55.803Z,100578.38
2023-07-02T06:37:23.036Z,100567.53
2023-07-02T06:39:50.246Z,100578.59
2023-07-02T06:42:17.476Z,100593.22
2023-07-02T06:44:44.736Z,100574.78
2023-07-02T06:47:11.898Z,100577.47
2023-07-02T06:49:39.195Z,100589.53
2023-07-02T06:52:06.612Z,100580.47
2023-07-02T06:54:33.804Z,100585.00
2023-07-02T06:57:01.172Z,100593.38
2023-07-02T06:59:28.344Z,100592.38
2023-07-02T07:01:55.805Z,100608.16
2023-07-02T07:04:23.095Z,100592.91
2023-07-02T07:06:50.438Z,100607.66
2023-07-02T07:09:19.190Z,100609.50
2023-07-02T07:11:46.384Z,100613.66
2023-07-02T07:14:13.698Z,100610.34
2023-07-02T07:16:41.086Z,100611.69
2023-07-02T07:19:08.809Z,100602.63
2023-07-02T07:21:36.466Z,100603.81
2023-07-02T07:24:03.802Z,100625.28
2023-07-02T07:26:31.134Z,100614.88
2023-07-02T07:28:59.253Z,100612.38
2023-07-02T07:31:26.595Z,100627.78
2023-07-02T07:33:53.821Z,100639.00
2023-07-02T07:36:20.995Z,100626.94
2023-07-02T07:38:48.163Z,100624.63
2023-07-02T07:41:15.428Z,100620.56
2023-07-02T07:43:42.589Z,100642.53
2023-07-02T07:46:09.945Z,100642.88
2023-07-02T07:48:37.261Z,100638.03
2023-07-02T07:51:04.590Z,100630.47
2023-07-02T07:53:31.703Z,100653.28
2023-07-02T07:55:59.302Z,100645.06
2023-07-02T07:58:26.958Z,100652.44
2023-07-02T08:00:54.166Z,100654.13
2023-07-02T08:03:21.479Z,100650.09
2023-07-02T08:05:48.691Z,100651.75
2023-07-02T08:08:16.128Z,100657.13
2023-07-02T08:10:43.525Z,100655.97
2023-07-02T08:13:10.761Z,100648.44
2023-07-02T08:15:38.918Z,100657.84
2023-07-02T08:18:08.700Z,100652.78
2023-07-02T08:20:35.880Z,100656.28
2023-07-02T08:23:03.117Z,100660.00
2023-07-02T08:25:30.450Z,100664.50
2023-07-02T08:27:58.303Z,100664.31
2023-07-02T08:30:26.876Z,100651.94
2023-07-02T08:32:55.764Z,100664.53
2023-07-02T08:35:23.262Z,100666.19
2023-07-02T08:37:50.532Z,100664.00
2023-07-02T08:40:19.306Z,100666.53
2023-07-02T08:42:48.642Z,100658.31
2023-07-02T08:45:20.013Z,100662.69
2023-07-02T08:47:47.381Z,100664.03
2023-07-02T08:50:15.359Z,100670.22
2023-07-02T08:52:44.235Z,100662.50
2023-07-02T08:55:11.566Z,100667.31
2023-07-02T08:57:38.770Z,100660.94
2023-07-02T09:00:10.947Z,100673.53
2023-07-02T09:02:38.289Z,100672.03
2023-07-02T09:05:06.263Z,100669.28
2023-07-02T09:07:33.657Z,100683.38
2023-07-02T09:10:00.888Z,100677.94
2023-07-02T09:12:30.053Z,100692.84
2023-07-02T09:15:07.902Z,100684.25
2023-07-02T09:17:37.029Z,100694.00
2023-07-02T09:20:09.851Z,100695.75
2023-07-02T09:22:37.997Z,100703.88
2023-07-02T09:25:05.878Z,100701.47
2023-07-02T09:27:40.861Z,100715.38
2023-07-02T09:30:09.457Z,100719.31
2023-07-02T09:32:37.030Z,100703.81
2023-07-02T09:35:05.904Z,100709.63
2023-07-02T09:37:33.818Z,100716.19
2023-07-02T09:40:02.772Z,100705.94
2023-07-02T09:42:30.810Z,100702.16
2023-07-02T09:45:00.119Z,100711.72
2023-07-02T09:47:28.551Z,100719.44
2023-07-02T09:50:00.894Z,100704.53
2023-07-02T09:52:31.340Z,100710.41
2023-07-02T09:54:58.558Z,100717.94
2023-07-02T09:57:26.030Z,100702.47
2023-07-02T09:59:53.334Z,100714.41
2023-07-02T10:02:20.841Z,100702.72
2023-07-02T10:04:49.467Z,100704.88
2023-07-02T10:07:28.603Z,100705.69
2023-07-02T10:09:55.961Z,100703.50
2023-07-02T10:12:24.861Z,100711.25
2023-07-02T10:14:54.870Z,100717.47
2023-07-02T10:17:30.315Z,100697.03
2023-07-02T10:20:00.576Z,100699.97
2023-07-02T10:22:28.471Z,100698.41
2023-07-02T10:25:03.297Z,100711.78
2023-07-02T10:27:38.808Z,100697.25
2023-07-02T10:30:07.991Z,100715.38
2023-07-02T10:32:36.798Z,100714.34
2023-07-02T10:35:17.811Z,100710.44
2023-07-02T10:37:45.589Z,100721.38
2023-07-02T10:40:13.667Z,100722.25
2023-07-02T10:42:51.958Z,100729.25
2023-07-02T10:45:20.655Z,100718.84
2023-07-02T10:47:48.244Z,100723.41
2023-07-02T10:50:22.797Z,100726.47
2023-07-02T10:52:51.999Z,100725.75
2023-07-02T10:55:23.989Z,100729.16
2023-07-02T10:58:03.122Z,100725.25
2023-07-02T11:00:31.289Z,100740.88
2023-07-02T11:02:58.936Z,100749.81
2023-07-02T11:05:29.587Z,100752.41
2023-07-02T11:08:10.066Z,100749.03
2023-07-02T11:10:37.332Z,100733.59
2023-07-02T11:13:21.714Z,100757.44
2023-07-02T11:15:49.653Z,100757.78
2023-07-02T11:18:19.205Z,100734.78
2023-07-02T11:20:48.347Z,100741.78
2023-07-02T11:23:19.629Z,100754.13
2023-07-02T11:26:00.323Z,100748.94
2023-07-02T11:28:29.091Z,100752.63
2023-07-02T11:30:57.175Z,100759.41
2023-07-02T11:33:37.675Z,100753.94
2023-07-02T11:36:09.303Z,100751.31
2023-07-02T11:38:38.259Z,100747.09
2023-07-02T11:41:05.764Z,100768.34
2023-07-02T11:43:33.746Z,100754.91
2023-07-02T11:46:00.948Z,100766.38
2023-07-02T11:48:28.885Z,100772.19
2023-07-02T11:50:56.099Z,100772.09
2023-07-02T11:53:23.262Z,100769.41
2023-07-02T11:55:50.818Z,100777.97
2023-07-02T11:58:18.241Z,100779.31
2023-07-02T12:00:45.432Z,100778.41
2023-07-02T12:03:13.303Z,100782.19
2023-07-02T12:05:40.541Z,100787.22
2023-07-02T12:08:08.555Z,100780.75
2023-07-02T12:10:37.805Z,100774.66
2023-07-02T12:13:05.942Z,100784.41
2023-07-02T12:15:33.172Z,100777.16
2023-07-02T12:18:00.467Z,100780.34
2023-07-02T12:20:27.726Z,100781.78
2023-07-02T12:22:54.896Z,100781.59
2023-07-02T12:25:22.264Z,100776.16
2023-07-02T12:27:49.518Z,100774.72
2023-07-02T12:30:18.524Z,100789.69
2023-07-02T12:32:46.118Z,100795.00
2023-07-02T12:35:13.553Z,100787.47
2023-07-02T12:37:48.458Z,100793.31
2023-07-02T12:40:16.013Z,100814.91
2023-07-02T12:42:44.479Z,100823.47
2023-07-02T12:45:13.231Z,100804.69
2023-07-02T12:47:42.178Z,100829.59
2023-07-02T12:50:11.043Z,100804.63
2023-07-02T12:52:38.772Z,100801.22
2023-07-02T12:55:06.556Z,100807.22
2023-07-02T12:57:33.756Z,100811.88
2023-07-02T13:00:01.039Z,100807.56
2023-07-02T13:02:29.294Z,100808.47
2023-07-02T13:04:56.608Z,100819.59
2023-07-02T13:07:25.196Z,100824.78
2023-07-02T13:09:52.574Z,100827.47
2023-07-02T13:12:19.773Z,100826.47
2023-07-02T13:14:47.266Z,100831.84
2023-07-02T13:17:14.480Z,100830.06
2023-07-02T13:19:41.645Z,100837.00
2023-07-02T13:22:08.949Z,100829.47
2023-07-02T13:24:39.020Z,100820.69
2023-07-02T13:27:10.289Z,100844.25
2023-07-02T13:29:37.616Z,100830.56
2023-07-02T13:32:05.219Z,100842.38
2023-07-02T13:34:32.470Z,100835.75
2023-07-02T13:36:59.676Z,100836.88
2023-07-02T13:39:26.862Z,100840.44
2023-07-02T13:41:54.048Z,100849.81
2023-07-02T13:46:48.514Z,100849.81
2023-07-02T13:49:15.681Z,100840.53
2023-07-02T13:51:42.884Z,100861.75
2023-07-02T13:54:13.688Z,100843.91
2023-07-02T13:56:40.897Z,100848.84
2023-07-02T13:59:08.539Z,100845.66
2023-07-02T14:01:35.831Z,100845.66
2023-07-02T14:04:04.748Z,100848.53
2023-07-02T14:06:32.548Z,100855.28
2023-07-02T14:08:59.794Z,100869.50
2023-07-02T14:11:29.038Z,100863.56
2023-07-02T14:13:56.838Z,100862.19
2023-07-02T14:16:25.314Z,100853.28
2023-07-02T14:18:53.242Z,100864.13
2023-07-02T14:21:21.037Z,100873.81
2023-07-02T14:23:48.227Z,100864.81
2023-07-02T14:26:15.412Z,100879.44
2023-07-02T14:28:42.676Z,100871.19
2023-07-02T14:31:10.521Z,100881.63
2023-07-02T14:33:38.993Z,100872.56
2023-07-02T14:36:07.328Z,100867.22
2023-07-02T14:38:35.628Z,100873.03
2023-07-02T14:41:03.392Z,100885.69
2023-07-02T14:43:32.146Z,100880.75
2023-07-02T14:46:02.160Z,100877.56
2023-07-02T14:48:29.764Z,100882.88
2023-07-02T14:50:59.749Z,100880.34
2023-07-02T14:53:28.458Z,100874.50
2023-07-02T14:55:57.287Z,100885.66
2023-07-02T14:58:26.663Z,100882.00
2023-07-02T15:00:56.203Z,100889.22
2023-07-02T15:03:25.975Z,100888.53
2023-07-02T15:05:54.449Z,100883.84
2023-07-02T15:08:22.751Z,100898.28
2023-07-02T15:10:52.553Z,100910.25
2023-07-02T15:13:22.947Z,100890.41
2023-07-02T15:15:52.155Z,100889.69
2023-07-02T15:18:21.474Z,100901.88
2023-07-02T15:20:52.743Z,100895.13
2023-07-02T15:23:21.625Z,100885.84
2023-07-02T15:25:56.748Z,100874.53
2023-07-02T15:28:25.102Z,100880.78
2023-07-02T15:30:57.470Z,100886.06
2023-07-02T15:33:25.517Z,100883.06
2023-07-02T15:35:53.435Z,100885.38
2023-07-02T15:38:21.588Z,100887.28
2023-07-02T15:40:50.492Z,100897.56
2023-07-02T15:43:17.744Z,100900.47
2023-07-02T15:45:44.917Z,100902.38
2023-07-02T15:48:14.874Z,100903.22
2023-07-02T15:50:42.036Z,100912.78
2023-07-02T15:53:09.245Z,100903.81
2023-07-02T15:55:36.865Z,100903.53
2023-07-02T15:58:04.089Z,100898.13
2023-07-02T16:00:31.589Z,100905.44
2023-07-02T16:02:58.943Z,100905.88
2023-07-02T16:05:26.675Z,100895.19
2023-07-02T16:07:54.076Z,100900.59
2023-07-02T16:10:21.438Z,100903.91
2023-07-02T16:12:49.791Z,100909.00
2023-07-02T16:15:17.296Z,100902.97
2023-07-02T16:17:44.560Z,100908.19
2023-07-02T16:20:12.536Z,100906.00
2023-07-02T16:22:39.845Z,100901.66
2023-07-02T16:25:07.553Z,100904.88
2023-07-02T16:27:35.919Z,100902.19
2023-07-02T16:30:04.534Z,100911.94
2023-07-02T16:32:32.990Z,100909.72
2023-07-02T16:35:00.244Z,100903.31
2023-07-02T16:37:27.736Z,100907.41
2023-07-02T16:39:55.303Z,100911.44
2023-07-02T16:42:22.571Z,100899.78
2023-07-02T16:44:49.906Z,100907.97
2023-07-02T16:47:17.147Z,100910.81
2023-07-02T16:49:47.677Z,100909.72
2023-07-02T16:52:15.969Z,100916.13
2023-07-02T16:54:43.462Z,100910.44
2023-07-02T16:57:10.687Z,100908.81
2023-07-02T16:59:40.761Z,100918.53
2023-07-02T17:02:10.207Z,100911.16
2023-07-02T17:04:37.546Z,100918.03
2023-07-02T17:07:05.024Z,100921.91
2023-07-02T17:09:40.675Z,100928.78
2023-07-02T17:12:12.823Z,100924.00
2023-07-02T17:14:41.064Z,100921.97
2023-07-02T17:17:11.669Z,100935.66
2023-07-02T17:19:41.942Z,100928.31
2023-07-02T17:22:12.292Z,100925.44
2023-07-02T17:24:42.519Z,100934.34
2023-07-02T17:27:11.928Z,100939.75
2023-07-02T17:29:39.694Z,100926.94
2023-07-02T17:32:09.507Z,100923.22
2023-07-02T17:34:38.525Z,100926.59
2023-07-02T17:37:07.777Z,100914.63
2023-07-02T17:39:36.777Z,100928.44
2023-07-02T17:42:05.221Z,100917.84
2023-07-02T17:44:35.837Z,100924.94
2023-07-02T17:47:06.878Z,100920.91
2023-07-02T17:49:37.979Z,100935.38
2023-07-02T17:52:06.587Z,100925.13
2023-07-02T17:54:59.584Z,100926.47
2023-07-02T17:57:26.837Z,100929.69
2023-07-02T17:59:56.981Z,100930.34
2023-07-02T18:02:24.482Z,100927.50
2023-07-02T18:04:51.902Z,100921.59
2023-07-02T18:07:21.307Z,100924.97
2023-07-02T18:09:51.017Z,100909.69
2023-07-02T18:12:26.467Z,100913.91
2023-07-02T18:14:57.394Z,100922.66
2023-07-02T18:17:24.860Z,100916.44
2023-07-02T18:19:54.284Z,100927.63
2023-07-02T18:22:22.208Z,100927.31
2023-07-02T18:24:49.480Z,100914.19
2023-07-02T18:27:17.416Z,100920.44
2023-07-02T18:29:44.823Z,100919.44
2023-07-02T18:32:12.022Z,100925.81
2023-07-02T18:34:41.019Z,100926.28
2023-07-02T18:37:11.027Z,100927.63
2023-07-02T18:39:38.877Z,100918.88
2023-07-02T18:42:09.270Z,100912.34
2023-07-02T18:44:37.187Z,100921.56
2023-07-02T18:47:07.740Z,100923.78
2023-07-02T18:49:36.412Z,100919.38
2023-07-02T18:52:15.132Z,100915.22
2023-07-02T18:54:42.836Z,100916.53
2023-07-02T18:57:12.091Z,100912.53
2023-07-02T18:59:41.505Z,100919.88
2023-07-02T19:02:08.847Z,100916.03
2023-07-02T19:04:36.173Z,100907.63
2023-07-02T19:07:06.174Z,100910.63
2023-07-02T19:09:37.645Z,100905.75
2023-07-02T19:12:08.485Z,100908.09
2023-07-02T19:14:39.766Z,100913.59
2023-07-02T19:17:10.222Z,100919.47
2023-07-02T19:19:41.266Z,100913.06
2023-07-02T19:22:12.972Z,100911.41
2023-07-02T19:24:40.779Z,100912.25
2023-07-02T19:27:10.758Z,100912.91
2023-07-02T19:29:38.694Z,100912.66
2023-07-02T19:32:06.485Z,100917.53
2023-07-02T19:34:34.096Z,100912.97
2023-07-02T19:37:01.683Z,100917.28
2023-07-02T19:39:31.738Z,100926.03
2023-07-02T19:41:59.181Z,100918.44
2023-07-02T19:44:26.556Z,100912.38
2023-07-02T19:46:53.781Z,100918.75
2023-07-02T19:49:21.484Z,100919.72
2023-07-02T19:51:51.503Z,100918.94
2023-07-02T19:54:20.374Z,100920.44
2023-07-02T19:56:49.972Z,100923.25
2023-07-02T19:59:17.924Z,100915.69
2023-07-02T20:01:45.419Z,100913.28
2023-07-02T20:04:23.128Z,100921.50
2023-07-02T20:06:50.909Z,100925.31
2023-07-02T20:09:18.598Z,100918.59
2023-07-02T20:11:45.898Z,100914.91
2023-07-02T20:14:13.137Z,100918.47
2023-07-02T20:16:40.800Z,100911.22
2023-07-02T20:19:08.103Z,100910.03
2023-07-02T20:21:35.332Z,100911.41
2023-07-02T20:24:05.898Z,100906.03
2023-07-02T20:26:35.520Z,100906.00
2023-07-02T20:29:03.228Z,100898.06
2023-07-02T20:31:31.595Z,100900.88
2023-07-02T20:34:03.221Z,100892.84
2023-07-02T20:36:32.341Z,100899.00
2023-07-02T20:39:00.628Z,100895.13
2023-07-02T20:41:29.235Z,100893.84
2023-07-02T20:44:04.984Z,100887.50
2023-07-02T20:46:32.805Z,100889.81
2023-07-02T20:49:00.338Z,100894.47
2023-07-02T20:51:28.074Z,100892.81
2023-07-02T20:53:55.421Z,100895.25
2023-07-02T20:56:22.759Z,100898.78
2023-07-02T20:58:51.443Z,100899.53
2023-07-02T21:01:18.745Z,100894.91
2023-07-02T21:03:46.146Z,100902.09
2023-07-02T21:06:13.642Z,100907.56
2023-07-02T21:08:40.915Z,100897.56
2023-07-02T21:11:20.326Z,100897.19
2023-07-02T21:13:56.344Z,100904.22
2023-07-02T21:16:24.155Z,100893.34
2023-07-02T21:18:51.770Z,100885.03
2023-07-02T21:21:19.119Z,100897.41
2023-07-02T21:23:46.409Z,100898.25
2023-07-02T21:26:13.658Z,100896.44
2023-07-02T21:28:40.913Z,100903.06
2023-07-02T21:31:08.317Z,100898.69
2023-07-02T21:33:35.541Z,100899.34
2023-07-02T21:36:08.700Z,100889.59
2023-07-02T21:38:38.579Z,100891.59
2023-07-02T21:41:07.289Z,100890.91
2023-07-02T21:43:35.193Z,100902.63
2023-07-02T21:46:04.752Z,100886.78
2023-07-02T21:48:32.131Z,100880.06
2023-07-02T21:50:59.378Z,100887.78
2023-07-02T21:53:26.683Z,100887.16
2023-07-02T21:55:54.081Z,100880.13
2023-07-02T21:58:21.714Z,100881.31
2023-07-02T22:00:49.173Z,100876.44
2023-07-02T22:03:16.924Z,100877.44
2023-07-02T22:05:44.201Z,100876.13
2023-07-02T22:08:11.431Z,100877.31
2023-07-02T22:10:38.636Z,100874.78
2023-07-02T22:13:06.930Z,100867.97
2023-07-02T22:15:34.201Z,100866.91
2023-07-02T22:18:04.138Z,100870.59
2023-07-02T22:20:33.636Z,100858.88
2023-07-02T22:23:01.844Z,100861.25
2023-07-02T22:25:29.626Z,100862.97
2023-07-02T22:27:57.383Z,100860.59
2023-07-02T22:30:24.860Z,100855.56
2023-07-02T22:32:52.192Z,100854.06
2023-07-02T22:35:20.008Z,100847.06
2023-07-02T22:37:47.842Z,100843.03
2023-07-02T22:40:17.815Z,100843.66
2023-07-02T22:42:45.883Z,100839.34
2023-07-02T22:45:15.181Z,100839.13
2023-07-02T22:47:43.791Z,100830.44
2023-07-02T22:50:13.670Z,100822.06
2023-07-02T22:52:40.894Z,100830.31
2023-07-02T22:55:08.662Z,100826.97
2023-07-02T22:57:36.455Z,100823.94
2023-07-02T23:00:13.430Z,100821.91
2023-07-02T23:02:46.450Z,100821.22
2023-07-02T23:05:18.350Z,100819.00
2023-07-02T23:07:47.512Z,100816.16
2023-07-02T23:10:17.403Z,100807.16
2023-07-02T23:12:49.750Z,100807.16
2023-07-02T23:15:19.761Z,100810.97
2023-07-02T23:17:52.272Z,100808.84
2023-07-02T23:20:20.305Z,100801.94
2023-07-02T23:22:49.625Z,100797.13
2023-07-02T23:25:21.718Z,100797.81
2023-07-02T23:27:50.346Z,100795.97
2023-07-02T23:30:20.976Z,100793.28
2023-07-02T23:32:50.036Z,100792.63
2023-07-02T23:35:17.457Z,100797.28
2023-07-02T23:37:46.816Z,100786.88
2023-07-02T23:40:17.596Z,100782.09
2023-07-02T23:42:45.517Z,100784.78
2023-07-02T23:45:14.471Z,100780.03
2023-07-02T23:47:44.023Z,100777.88
2023-07-02T23:50:13.214Z,100779.59
2023-07-02T23:52:40.741Z,100774.38
2023-07-02T23:55:11.515Z,100771.69
2023-07-02T23:57:39.251Z,100777.88
